Navarre, Florida
Current Conditions -  °F | °C
As of 12:56 AM on Saturday 20 Dec 2014 (Local Time) from KQBL Reporting Station
Rain Showers Rain Showers  
Wind Chill: 49°   Ceiling: 4700
Heat Index: 49°   Visibility: 7mi
Dew Point: 48°   Wind: 2mph
Humidity: 97%   Direction: 20°NNE
Pressure: 30.1"   Gusts: NA
Location:  30.4°N, 86.86°W
Report Text: KQBL 200556Z AUTO 02002KT 7SM -SHRA FEW005 BKN047 09/09 A3010 RMK AO2 SHRAE05SHRAB15 SLP198 60002 T00920087 10106 20092 58011
Loading
Personal Weather Stations






























Interactive Weather Map New forecast layout! Learn more

10-Day Weather Forecast

Advertisements
Track Severe Weather on mobile